Haskell Heights, South Carolina
Current Conditions -  °F | °C
As of 7:53 PM on Thursday 27 Nov 2014 (Local Time) from KCUB Reporting Station
Clear Clear  
Wind Chill: 42°   Ceiling: Unl
Heat Index: 46°   Visibility: 10mi
Dew Point: 28°   Wind: 7mph
Humidity: 50%   Direction: NA
Pressure: 30.27"   Gusts: NA
Location:  34.1179°N, 81.0612°W
Report Text: KCUB 280053Z AUTO VRB06KT 10SM CLR 08/M02 A3027 RMK AO2 SLP248 T00781022
Loading
Personal Weather Stations






























Interactive Weather Map New forecast layout! Learn more

10-Day Weather Forecast

Advertisements
Track Severe Weather on mobile